createdAt,value
2022-09-15T00:02:31.424Z,7.00
2022-09-15T00:05:19.009Z,6.82
2022-09-15T00:08:05.233Z,7.15
2022-09-15T00:11:31.559Z,6.53
2022-09-15T00:14:18.431Z,7.13
2022-09-15T00:17:04.122Z,6.05
2022-09-15T00:19:50.241Z,6.15
2022-09-15T00:22:36.181Z,6.25
2022-09-15T00:25:22.571Z,5.80
2022-09-15T00:28:08.875Z,6.25
2022-09-15T00:30:55.605Z,6.28
2022-09-15T00:33:41.452Z,5.97
2022-09-15T00:36:27.377Z,6.00
2022-09-15T00:39:13.033Z,5.57
2022-09-15T00:41:59.471Z,5.53
2022-09-15T00:44:47.604Z,6.43
2022-09-15T00:47:40.001Z,6.15
2022-09-15T00:50:25.886Z,6.28
2022-09-15T00:53:15.214Z,6.20
2022-09-15T00:56:02.176Z,6.20
2022-09-15T00:58:55.227Z,6.03
2022-09-15T01:01:43.905Z,6.35
2022-09-15T01:04:29.813Z,6.50
2022-09-15T01:07:23.745Z,6.57
2022-09-15T01:10:31.713Z,8.15
2022-09-15T01:13:17.755Z,7.80
2022-09-15T01:16:13.701Z,8.02
2022-09-15T01:19:20.201Z,8.93
2022-09-15T01:22:15.484Z,8.75
2022-09-15T01:25:19.534Z,8.50
2022-09-15T01:28:36.101Z,8.93
2022-09-15T01:31:36.918Z,8.60
2022-09-15T01:34:22.843Z,8.40
2022-09-15T01:37:15.319Z,9.07
2022-09-15T01:40:03.085Z,8.73
2022-09-15T01:42:50.415Z,8.63
2022-09-15T01:45:39.666Z,8.90
2022-09-15T01:48:27.946Z,8.80
2022-09-15T01:51:14.717Z,8.80
2022-09-15T01:54:04.145Z,9.10
2022-09-15T01:56:49.945Z,8.65
2022-09-15T01:59:35.873Z,9.30
2022-09-15T02:02:36.061Z,8.32
2022-09-15T02:05:41.266Z,8.25
2022-09-15T02:08:36.782Z,8.40
2022-09-15T02:11:28.909Z,8.23
2022-09-15T02:14:28.514Z,7.22
2022-09-15T02:17:19.052Z,7.53
2022-09-15T02:20:08.988Z,7.78
2022-09-15T02:23:00.784Z,7.55
2022-09-15T02:25:51.641Z,7.85
2022-09-15T02:28:40.034Z,8.23
2022-09-15T02:31:27.922Z,7.82
2022-09-15T02:34:19.656Z,8.02
2022-09-15T02:37:06.559Z,8.13
2022-09-15T02:39:58.018Z,8.13
2022-09-15T02:42:54.319Z,7.90
2022-09-15T02:45:41.007Z,7.85
2022-09-15T02:48:27.080Z,8.57
2022-09-15T02:51:12.904Z,8.45
2022-09-15T02:53:59.001Z,7.83
2022-09-15T02:56:45.725Z,8.38
2022-09-15T02:59:51.851Z,8.70
2022-09-15T03:02:39.478Z,8.32
2022-09-15T03:05:28.766Z,9.30
2022-09-15T03:08:14.819Z,8.70
2022-09-15T03:11:00.945Z,9.13
2022-09-15T03:13:47.921Z,8.73
2022-09-15T03:16:35.617Z,8.85
2022-09-15T03:19:21.535Z,9.27
2022-09-15T03:22:09.414Z,9.48
2022-09-15T03:24:55.801Z,9.40
2022-09-15T03:27:42.363Z,8.95
2022-09-15T03:30:28.324Z,8.88
2022-09-15T03:33:13.816Z,9.45
2022-09-15T03:35:59.893Z,9.30
2022-09-15T03:38:45.946Z,9.27
2022-09-15T03:41:31.617Z,9.38
2022-09-15T03:44:17.449Z,9.45
2022-09-15T03:47:04.608Z,9.77
2022-09-15T03:49:50.017Z,9.15
2022-09-15T03:52:35.718Z,10.00
2022-09-15T03:55:21.097Z,9.52
2022-09-15T03:58:06.511Z,9.68
2022-09-15T04:00:52.713Z,10.05
2022-09-15T04:03:45.165Z,8.52
2022-09-15T04:06:32.459Z,10.23
2022-09-15T04:09:20.333Z,9.17
2022-09-15T04:12:06.817Z,8.40
2022-09-15T04:14:54.010Z,9.30
2022-09-15T04:17:39.721Z,8.90
2022-09-15T04:20:25.350Z,8.45
2022-09-15T04:23:11.867Z,8.90
2022-09-15T04:26:23.079Z,8.38
2022-09-15T04:29:14.867Z,9.20
2022-09-15T04:32:00.973Z,9.75
2022-09-15T04:34:47.113Z,9.63
2022-09-15T04:37:33.512Z,10.53
2022-09-15T04:40:19.412Z,10.75
2022-09-15T04:43:05.057Z,11.30
2022-09-15T04:45:51.197Z,10.80
2022-09-15T04:48:38.638Z,11.00
2022-09-15T04:51:25.794Z,10.70
2022-09-15T04:54:11.844Z,10.43
2022-09-15T04:56:57.809Z,9.30
2022-09-15T04:59:44.248Z,9.38
2022-09-15T05:02:30.308Z,9.75
2022-09-15T05:05:16.104Z,9.05
2022-09-15T05:08:01.909Z,8.65
2022-09-15T05:10:48.431Z,9.00
2022-09-15T05:13:35.467Z,8.88
2022-09-15T05:16:27.575Z,8.00
2022-09-15T05:19:13.423Z,7.00
2022-09-15T05:21:59.026Z,7.43
2022-09-15T05:24:45.062Z,6.80
2022-09-15T05:27:33.849Z,6.77
2022-09-15T05:33:25.998Z,7.25
2022-09-15T05:36:14.373Z,7.80
2022-09-15T05:39:01.962Z,8.00
2022-09-15T05:41:48.014Z,7.22
2022-09-15T05:44:33.715Z,7.30
2022-09-15T05:47:19.401Z,7.68
2022-09-15T05:50:05.785Z,7.68
2022-09-15T05:52:52.792Z,7.80
2022-09-15T05:55:39.079Z,7.60
2022-09-15T05:58:25.964Z,7.68
2022-09-15T06:01:16.088Z,7.45
2022-09-15T06:04:02.277Z,8.17
2022-09-15T06:06:48.394Z,7.88
2022-09-15T06:09:34.744Z,7.72
2022-09-15T06:12:21.274Z,7.65
2022-09-15T06:15:07.436Z,7.43
2022-09-15T06:17:53.137Z,6.43
2022-09-15T06:20:39.077Z,6.13
2022-09-15T06:23:25.377Z,6.10
2022-09-15T06:26:18.928Z,5.90
2022-09-15T06:29:05.906Z,5.97
2022-09-15T06:31:51.951Z,5.40
2022-09-15T06:34:38.181Z,5.82
2022-09-15T06:37:23.892Z,5.85
2022-09-15T06:40:10.447Z,5.43
2022-09-15T06:42:57.095Z,5.22
2022-09-15T06:45:43.411Z,5.10
2022-09-15T06:48:30.129Z,4.70
2022-09-15T06:51:17.888Z,4.90
2022-09-15T06:54:04.526Z,4.95
2022-09-15T06:56:50.639Z,4.93
2022-09-15T06:59:37.014Z,4.85
2022-09-15T07:02:23.608Z,4.10
2022-09-15T07:05:10.890Z,4.38
2022-09-15T07:07:57.211Z,4.20
2022-09-15T07:10:45.068Z,4.28
2022-09-15T07:13:34.147Z,4.67
2022-09-15T07:16:22.531Z,3.47
2022-09-15T07:19:08.509Z,3.00
2022-09-15T07:21:54.751Z,3.07
2022-09-15T07:24:40.926Z,2.88
2022-09-15T07:27:31.488Z,2.70
2022-09-15T07:30:17.458Z,2.80
2022-09-15T07:33:04.117Z,2.50
2022-09-15T07:35:51.033Z,2.85
2022-09-15T07:38:41.698Z,2.60
2022-09-15T07:41:29.801Z,2.28
2022-09-15T07:44:15.670Z,2.30
2022-09-15T07:47:01.534Z,1.90
2022-09-15T07:49:47.539Z,1.98
2022-09-15T07:52:33.432Z,2.25
2022-09-15T07:55:19.729Z,4.50
2022-09-15T07:58:05.794Z,2.25
2022-09-15T08:00:52.513Z,2.17
2022-09-15T08:03:42.797Z,2.20
2022-09-15T08:06:28.795Z,2.45
2022-09-15T08:09:17.346Z,2.50
2022-09-15T08:12:04.847Z,2.08
2022-09-15T08:14:50.844Z,1.83
2022-09-15T08:17:36.946Z,1.65
2022-09-15T08:20:22.905Z,1.63
2022-09-15T08:23:09.580Z,1.70
2022-09-15T08:25:55.196Z,1.60
2022-09-15T08:28:41.085Z,1.88
2022-09-15T08:31:27.755Z,2.00
2022-09-15T08:34:15.133Z,1.90
2022-09-15T08:37:00.890Z,2.05
2022-09-15T08:39:47.072Z,2.50
2022-09-15T08:42:34.111Z,2.72
2022-09-15T08:45:34.928Z,2.60
2022-09-15T08:48:27.965Z,2.42
2022-09-15T08:51:32.140Z,2.92
2022-09-15T08:54:29.612Z,2.60
2022-09-15T08:57:22.989Z,2.65
2022-09-15T09:00:15.691Z,1.87
2022-09-15T09:03:28.646Z,1.73
2022-09-15T09:06:32.484Z,1.88
2022-09-15T09:09:27.034Z,1.90
2022-09-15T09:12:34.268Z,1.20
2022-09-15T09:15:46.783Z,1.15
2022-09-15T09:18:39.197Z,1.67
2022-09-15T09:21:35.027Z,1.73
2022-09-15T09:24:39.186Z,2.00
2022-09-15T09:27:29.593Z,1.70
2022-09-15T09:30:20.645Z,1.45
2022-09-15T09:33:25.312Z,1.70
2022-09-15T09:36:12.852Z,1.52
2022-09-15T09:38:58.823Z,1.60
2022-09-15T09:41:46.046Z,1.60
2022-09-15T09:44:32.253Z,2.17
2022-09-15T09:47:20.920Z,1.52
2022-09-15T09:50:32.481Z,2.97
2022-09-15T09:53:33.439Z,1.88
2022-09-15T09:56:27.457Z,1.57
2022-09-15T09:59:31.506Z,1.60
2022-09-15T10:02:25.734Z,1.60
2022-09-15T10:05:12.176Z,1.60
2022-09-15T10:08:03.389Z,1.65
2022-09-15T10:10:54.772Z,1.90
2022-09-15T10:13:52.485Z,1.70
2022-09-15T10:16:38.103Z,1.40
2022-09-15T10:19:24.933Z,2.00
2022-09-15T10:22:20.985Z,2.15
2022-09-15T10:25:39.538Z,2.10
2022-09-15T10:28:33.314Z,1.60
2022-09-15T10:31:37.039Z,1.52
2022-09-15T10:34:30.920Z,1.50
2022-09-15T10:37:43.332Z,1.65
2022-09-15T10:40:39.142Z,1.50
2022-09-15T10:43:27.856Z,1.50
2022-09-15T10:46:19.232Z,1.60
2022-09-15T10:49:17.638Z,1.15
2022-09-15T10:52:36.439Z,1.17
2022-09-15T10:55:53.639Z,1.08
2022-09-15T10:58:58.672Z,1.60
2022-09-15T11:02:03.297Z,1.25
2022-09-15T11:05:31.702Z,1.43
2022-09-15T11:08:33.826Z,1.10
2022-09-15T11:11:46.275Z,1.27
2022-09-15T11:14:45.164Z,1.42
2022-09-15T11:17:48.769Z,1.60
2022-09-15T11:21:11.923Z,1.40
2022-09-15T11:24:08.320Z,1.45
2022-09-15T11:26:59.390Z,1.23
2022-09-15T11:30:01.355Z,1.63
2022-09-15T11:32:55.740Z,1.17
2022-09-15T11:36:01.328Z,1.30
2022-09-15T11:39:04.528Z,1.20
2022-09-15T11:41:57.428Z,1.40
2022-09-15T11:44:46.656Z,1.52
2022-09-15T11:47:44.473Z,1.10
2022-09-15T11:50:34.416Z,1.45
2022-09-15T11:53:32.857Z,1.63
2022-09-15T11:56:26.151Z,1.40
2022-09-15T11:59:36.694Z,1.30
2022-09-15T12:02:56.701Z,1.52
2022-09-15T12:06:00.140Z,1.15
2022-09-15T12:09:04.842Z,1.38
2022-09-15T12:11:55.517Z,1.38
2022-09-15T12:14:47.036Z,1.35
2022-09-15T12:18:01.319Z,1.05
2022-09-15T12:21:20.759Z,1.05
2022-09-15T12:24:14.609Z,1.13
2022-09-15T12:27:01.736Z,1.20
2022-09-15T12:29:56.240Z,1.25
2022-09-15T12:32:41.908Z,1.02
2022-09-15T12:35:33.505Z,1.52
2022-09-15T12:38:23.093Z,1.50
2022-09-15T12:41:11.227Z,1.10
2022-09-15T12:44:24.690Z,0.80
2022-09-15T12:47:24.794Z,0.90
2022-09-15T12:50:16.761Z,0.77
2022-09-15T12:53:20.190Z,1.20
2022-09-15T12:56:22.018Z,0.87
2022-09-15T12:59:14.975Z,0.93
2022-09-15T13:02:02.659Z,1.00
2022-09-15T13:04:52.713Z,0.90
2022-09-15T13:08:00.266Z,0.73
2022-09-15T13:11:08.793Z,0.90
2022-09-15T13:14:12.638Z,0.88
2022-09-15T13:17:10.356Z,1.00
2022-09-15T13:20:03.087Z,0.85
2022-09-15T13:22:53.942Z,1.00
2022-09-15T13:25:43.294Z,0.75
2022-09-15T13:28:29.631Z,1.00
2022-09-15T13:31:24.379Z,0.85
2022-09-15T13:38:06.869Z,0.40
2022-09-15T13:41:13.631Z,1.13
2022-09-15T13:44:48.148Z,0.70
2022-09-15T13:47:47.417Z,0.85
2022-09-15T13:50:40.862Z,0.75
2022-09-15T13:53:36.478Z,0.60
2022-09-15T13:56:28.952Z,0.70
2022-09-15T13:59:24.522Z,0.70
2022-09-15T14:02:12.786Z,0.60
2022-09-15T14:04:58.477Z,0.57
2022-09-15T14:07:52.199Z,0.73
2022-09-15T14:10:59.426Z,0.73
2022-09-15T14:13:48.347Z,0.50
2022-09-15T14:16:39.239Z,0.75
2022-09-15T14:19:32.337Z,0.70
2022-09-15T14:22:18.743Z,1.00
2022-09-15T14:25:16.953Z,0.60
2022-09-15T14:28:04.657Z,0.90
2022-09-15T14:30:50.130Z,0.52
2022-09-15T14:33:39.518Z,0.70
2022-09-15T14:36:30.021Z,0.87
2022-09-15T14:39:21.751Z,0.80
2022-09-15T14:42:34.350Z,0.65
2022-09-15T14:48:30.743Z,0.70
2022-09-15T14:51:25.697Z,0.85
2022-09-15T14:54:29.676Z,0.80
2022-09-15T14:57:19.659Z,0.65
2022-09-15T15:00:14.598Z,0.75
2022-09-15T15:03:03.650Z,0.67
2022-09-15T15:06:02.459Z,0.77
2022-09-15T15:09:12.520Z,0.75
2022-09-15T15:12:08.088Z,1.00
2022-09-15T15:14:55.381Z,0.85
2022-09-15T15:17:50.873Z,0.60
2022-09-15T15:20:46.661Z,0.80
2022-09-15T15:23:33.177Z,0.90
2022-09-15T15:26:36.871Z,0.75
2022-09-15T15:29:42.671Z,0.70
2022-09-15T15:32:34.947Z,0.80
2022-09-15T15:35:21.339Z,0.50
2022-09-15T15:38:15.351Z,0.60
2022-09-15T15:41:04.336Z,0.70
2022-09-15T15:44:08.179Z,0.70
2022-09-15T15:46:57.156Z,0.60
2022-09-15T15:50:02.359Z,0.47
2022-09-15T15:52:49.904Z,0.60
2022-09-15T15:55:39.777Z,0.57
2022-09-15T15:58:27.297Z,0.50
2022-09-15T16:01:13.565Z,0.70
2022-09-15T16:03:59.228Z,0.40
2022-09-15T16:06:45.799Z,1.02
2022-09-15T16:09:32.682Z,0.63
2022-09-15T16:12:19.007Z,0.70
2022-09-15T16:15:16.989Z,0.40
2022-09-15T16:18:04.265Z,0.50
2022-09-15T16:20:50.179Z,0.50
2022-09-15T16:23:36.645Z,0.55
2022-09-15T16:26:24.375Z,0.52
2022-09-15T16:29:10.419Z,0.40
2022-09-15T16:31:57.117Z,0.60
2022-09-15T16:34:42.786Z,0.80
2022-09-15T16:37:28.929Z,0.50
2022-09-15T16:40:15.610Z,0.50
2022-09-15T16:43:02.032Z,0.45
2022-09-15T16:45:49.088Z,0.40
2022-09-15T16:48:34.594Z,0.50
2022-09-15T16:51:30.978Z,0.40
2022-09-15T16:54:20.386Z,0.50
2022-09-15T16:57:06.367Z,0.50
2022-09-15T16:59:52.072Z,0.50
2022-09-15T17:02:37.688Z,0.52
2022-09-15T17:05:48.737Z,0.40
2022-09-15T17:08:34.769Z,0.40
2022-09-15T17:11:23.814Z,0.60
2022-09-15T17:14:15.321Z,0.40
2022-09-15T17:17:01.195Z,0.43
2022-09-15T17:19:47.440Z,0.50
2022-09-15T17:22:34.120Z,0.47
2022-09-15T17:25:29.989Z,0.43
2022-09-15T17:28:15.773Z,0.50
2022-09-15T17:31:04.192Z,0.50
2022-09-15T17:33:51.347Z,0.60
2022-09-15T17:36:37.274Z,0.70
2022-09-15T17:39:23.259Z,0.57
2022-09-15T17:42:10.289Z,0.50
2022-09-15T17:44:56.371Z,0.50
2022-09-15T17:47:42.710Z,0.88
2022-09-15T17:50:30.028Z,0.60
2022-09-15T17:53:26.789Z,0.85
2022-09-15T17:56:13.223Z,0.50
2022-09-15T17:58:59.233Z,0.90
2022-09-15T18:01:45.230Z,0.60
2022-09-15T18:04:30.613Z,0.70
2022-09-15T18:07:16.270Z,0.90
2022-09-15T18:10:03.021Z,1.08
2022-09-15T18:12:52.242Z,0.90
2022-09-15T18:15:41.405Z,1.00
2022-09-15T18:18:28.330Z,1.42
2022-09-15T18:21:25.655Z,1.13
2022-09-15T18:24:15.509Z,0.90
2022-09-15T18:27:01.881Z,0.88
2022-09-15T18:29:47.646Z,0.90
2022-09-15T18:32:34.151Z,1.23
2022-09-15T18:35:21.725Z,1.45
2022-09-15T18:38:08.042Z,0.90
2022-09-15T18:40:55.952Z,0.80
2022-09-15T18:43:42.054Z,1.10
2022-09-15T18:46:27.563Z,1.20
2022-09-15T18:49:13.105Z,0.98
2022-09-15T18:52:00.033Z,1.00
2022-09-15T18:54:45.744Z,0.82
2022-09-15T18:57:39.156Z,0.88
2022-09-15T19:00:29.273Z,0.90
2022-09-15T19:03:15.606Z,0.82
2022-09-15T19:06:05.185Z,0.98
2022-09-15T19:08:51.072Z,0.98
2022-09-15T19:11:36.871Z,0.80
2022-09-15T19:14:23.122Z,1.05
2022-09-15T19:17:08.713Z,0.82
2022-09-15T19:19:55.167Z,1.10
2022-09-15T19:22:41.262Z,1.20
2022-09-15T19:25:27.180Z,0.90
2022-09-15T19:28:13.013Z,0.80
2022-09-15T19:30:59.603Z,0.90
2022-09-15T19:33:45.758Z,0.88
2022-09-15T19:36:33.284Z,1.00
2022-09-15T19:39:18.958Z,0.77
2022-09-15T19:42:05.600Z,0.88
2022-09-15T19:44:52.213Z,0.63
2022-09-15T19:47:39.202Z,0.75
2022-09-15T19:50:24.901Z,0.80
2022-09-15T19:53:11.300Z,1.00
2022-09-15T19:55:57.397Z,0.70
2022-09-15T19:58:43.856Z,0.95
2022-09-15T20:01:30.900Z,0.82
2022-09-15T20:04:18.243Z,1.00
2022-09-15T20:07:04.419Z,1.02
2022-09-15T20:09:53.475Z,1.30
2022-09-15T20:12:38.985Z,1.00
2022-09-15T20:15:25.070Z,1.15
2022-09-15T20:18:10.864Z,0.80
2022-09-15T20:20:57.371Z,1.00
2022-09-15T20:23:45.659Z,1.15
2022-09-15T20:26:31.735Z,1.00
2022-09-15T20:29:17.693Z,1.10
2022-09-15T20:32:03.695Z,1.02
2022-09-15T20:34:50.908Z,1.17
2022-09-15T20:37:37.744Z,0.90
2022-09-15T20:40:23.350Z,1.10
2022-09-15T20:43:09.456Z,0.93
2022-09-15T20:46:00.799Z,0.80
2022-09-15T20:48:46.994Z,1.13
2022-09-15T20:51:33.841Z,0.93
2022-09-15T20:54:19.824Z,1.13
2022-09-15T20:57:05.441Z,1.20
2022-09-15T20:59:51.802Z,1.02
2022-09-15T21:02:38.094Z,0.93
2022-09-15T21:05:24.335Z,1.17
2022-09-15T21:08:11.051Z,1.10
2022-09-15T21:10:56.659Z,0.80
2022-09-15T21:13:43.529Z,1.20
2022-09-15T21:16:30.099Z,1.33
2022-09-15T21:19:15.764Z,1.40
2022-09-15T21:22:02.079Z,0.98
2022-09-15T21:24:47.875Z,1.20
2022-09-15T21:27:34.487Z,1.30
2022-09-15T21:30:20.861Z,1.08
2022-09-15T21:33:07.846Z,1.20
2022-09-15T21:36:01.232Z,1.40
2022-09-15T21:38:47.392Z,1.20
2022-09-15T21:41:33.406Z,0.90
2022-09-15T21:44:19.481Z,1.40
2022-09-15T21:47:05.249Z,1.23
2022-09-15T21:49:51.841Z,1.63
2022-09-15T21:52:38.192Z,1.10
2022-09-15T21:55:24.690Z,1.48
2022-09-15T21:58:10.921Z,1.20
2022-09-15T22:00:56.800Z,1.50
2022-09-15T22:03:43.552Z,1.43
2022-09-15T22:06:34.812Z,1.33
2022-09-15T22:09:21.389Z,1.40
2022-09-15T22:12:07.322Z,1.63
2022-09-15T22:14:53.960Z,1.70
2022-09-15T22:17:39.971Z,1.33
2022-09-15T22:20:28.034Z,1.20
2022-09-15T22:23:14.358Z,1.73
2022-09-15T22:26:03.845Z,1.20
2022-09-15T22:28:50.230Z,1.30
2022-09-15T22:31:36.881Z,1.58
2022-09-15T22:34:22.727Z,1.77
2022-09-15T22:37:09.086Z,1.42
2022-09-15T22:39:59.445Z,1.55
2022-09-15T22:42:46.498Z,1.60
2022-09-15T22:45:32.755Z,1.60
2022-09-15T22:48:18.411Z,2.00
2022-09-15T22:51:05.331Z,1.52
2022-09-15T22:53:54.786Z,1.48
2022-09-15T22:56:41.156Z,1.40
2022-09-15T22:59:27.915Z,1.20
2022-09-15T23:02:14.141Z,1.50
2022-09-15T23:04:59.924Z,1.60
2022-09-15T23:07:46.091Z,1.25
2022-09-15T23:10:32.856Z,1.55
2022-09-15T23:13:19.254Z,1.60
2022-09-15T23:16:06.391Z,1.48
2022-09-15T23:18:53.339Z,1.50
2022-09-15T23:21:39.684Z,1.92
2022-09-15T23:24:26.216Z,1.47
2022-09-15T23:27:12.151Z,1.50
2022-09-15T23:29:58.218Z,1.45
2022-09-15T23:32:44.840Z,1.58
2022-09-15T23:35:30.612Z,1.35
2022-09-15T23:38:18.072Z,1.42
2022-09-15T23:41:04.348Z,1.67
2022-09-15T23:43:50.633Z,1.38
2022-09-15T23:46:37.028Z,2.13
2022-09-15T23:49:22.880Z,1.67
2022-09-15T23:52:08.561Z,1.42
2022-09-15T23:54:54.450Z,1.50
2022-09-15T23:57:39.994Z,2.00
